METAR UND TAF INFORMATION
LDZA 231800Z 02004KT 350V070 9999 -RA FEW035 15/11 Q1010 NOSIG

 FLUGHAFENKARTE

 RUNWAY INFORMATION
Runway 05 Runway length 10669 ft Runway width 148 ft
Runway elevation 353 ft Runway displaced threshold 0 ft Runway heading 47
Runway 23 Runway length 10669 ft Runway width 148 ft
Runway elevation 348 ft Runway displaced threshold 0 ft Runway heading 227

 AIRPORT FREQUENCIES
Type APP Name APP Frequency 120.7 MHZ
Type ATIS Name ATIS Frequency 124.375 MHZ
Type GND Name GND Frequency 121.85 MHZ
Type INFO Name INFO Frequency 124.85 MHZ
Type RDR Name RADAR Frequency 120.7 MHZ
Type TWR Name TWR Frequency 118.3 MHZ

 AIRPORT NEAR NAVIGATION AIDS
Type DME Name Iza Frequency 109500 KHZ
Type NDB Name Pisarovina Frequency 424 KHZ
Type NDB Name S.kKaljevec Frequency 350 KHZ
Type NDB Name Velika Gorica Frequency 325 KHZ
Type VOR-DME Name Zagreb Frequency 113700 KHZ
Type NDB Name Zagreb Frequency 367 KHZ